KRAL/RAL METAR and TAF weather

Enter ICAO airport designator
Station Type Date Time Source
KRAL METAR 2021/03/05 00:53 UTC NOAA

KRAL 050053Z 31005KT 10SM CLR 19/06 A3021 RMK AO2 SLP220 T01940056


Station Type Date Time Source
KRAL Decoded METAR 2021/03/05 00:53 UTC NOAA

RIVERSIDE MUNICIPAL AIRPORT , CA, United States (KRAL) 33-57N 117-27W 252M
Mar 04, 2021 - 07:53 PM EST / 2021.03.05 0053 UTC
Wind: from the NW (310 degrees) at 6 MPH (5 KT):0
Visibility: 10 mile(s):0
Sky conditions: clear
Temperature: 66.9 F (19.4 C)
Dew Point: 42.1 F (5.6 C)
Relative Humidity: 40%
Pressure (altimeter): 30.21 in. Hg (1023 hPa)
ob: KRAL 050053Z 31005KT 10SM CLR 19/06 A3021 RMK AO2 SLP220 T01940056
cycle: 1

Station Type Date Time Source
KRAL TAF UTC NOAA

Error!

Example: see airport list